sensor_id;sensor_type;location;lat;lon;timestamp;pressure;altitude;pressure_sealevel;temperature;humidity
61742;BME280;47650;49.848;9.620;2022-10-16T00:00:43;99319.09;;;17.48;83.33
61742;BME280;47650;49.848;9.620;2022-10-16T00:03:14;99340.47;;;17.35;84.38
61742;BME280;47650;49.848;9.620;2022-10-16T00:05:42;99349.06;;;17.24;85.74
61742;BME280;47650;49.848;9.620;2022-10-16T00:08:09;99343.44;;;16.90;89.01
61742;BME280;47650;49.848;9.620;2022-10-16T00:10:36;99355.78;;;16.91;89.01
61742;BME280;47650;49.848;9.620;2022-10-16T00:13:02;99349.50;;;16.99;90.47
61742;BME280;47650;49.848;9.620;2022-10-16T00:15:28;99332.59;;;17.27;89.96
61742;BME280;47650;49.848;9.620;2022-10-16T00:17:53;99350.03;;;17.44;90.22
61742;BME280;47650;49.848;9.620;2022-10-16T00:20:18;99346.72;;;17.49;90.27
61742;BME280;47650;49.848;9.620;2022-10-16T00:22:43;99345.13;;;17.55;91.14
61742;BME280;47650;49.848;9.620;2022-10-16T00:25:09;99348.31;;;17.37;90.18
61742;BME280;47650;49.848;9.620;2022-10-16T00:27:34;99274.38;;;16.64;89.87
61742;BME280;47650;49.848;9.620;2022-10-16T00:30:07;99361.84;;;17.28;91.51
61742;BME280;47650;49.848;9.620;2022-10-16T00:32:35;99352.84;;;17.36;92.27
61742;BME280;47650;49.848;9.620;2022-10-16T00:35:01;99367.19;;;17.00;94.16
61742;BME280;47650;49.848;9.620;2022-10-16T00:37:29;99373.81;;;16.83;95.31
61742;BME280;47650;49.848;9.620;2022-10-16T00:39:55;99347.88;;;16.62;96.97
61742;BME280;47650;49.848;9.620;2022-10-16T00:42:21;99359.03;;;16.44;98.92
61742;BME280;47650;49.848;9.620;2022-10-16T00:44:55;99365.81;;;16.25;100.00
61742;BME280;47650;49.848;9.620;2022-10-16T00:47:29;99374.75;;;16.17;100.00
61742;BME280;47650;49.848;9.620;2022-10-16T00:50:08;99375.63;;;16.03;100.00
61742;BME280;47650;49.848;9.620;2022-10-16T00:52:34;99361.34;;;15.81;100.00
61742;BME280;47650;49.848;9.620;2022-10-16T00:55:01;99367.22;;;15.91;100.00
61742;BME280;47650;49.848;9.620;2022-10-16T00:57:28;99376.16;;;15.83;100.00
61742;BME280;47650;49.848;9.620;2022-10-16T01:00:04;99381.72;;;15.82;100.00
61742;BME280;47650;49.848;9.620;2022-10-16T01:02:31;99376.81;;;16.00;100.00
61742;BME280;47650;49.848;9.620;2022-10-16T01:04:56;99381.13;;;15.71;100.00
61742;BME280;47650;49.848;9.620;2022-10-16T01:12:40;99378.03;;;15.97;100.00
61742;BME280;47650;49.848;9.620;2022-10-16T01:15:12;99378.25;;;16.17;100.00
61742;BME280;47650;49.848;9.620;2022-10-16T01:17:53;99385.34;;;16.25;100.00
61742;BME280;47650;49.848;9.620;2022-10-16T01:20:32;99388.56;;;16.35;100.00
61742;BME280;47650;49.848;9.620;2022-10-16T01:23:19;99370.31;;;16.24;100.00
61742;BME280;47650;49.848;9.620;2022-10-16T01:25:59;99336.47;;;15.80;100.00
61742;BME280;47650;49.848;9.620;2022-10-16T01:28:47;99367.97;;;16.00;100.00
61742;BME280;47650;49.848;9.620;2022-10-16T01:31:18;99364.38;;;15.63;100.00
61742;BME280;47650;49.848;9.620;2022-10-16T01:33:47;99355.59;;;15.69;100.00
61742;BME280;47650;49.848;9.620;2022-10-16T01:36:16;99373.88;;;15.80;100.00
61742;BME280;47650;49.848;9.620;2022-10-16T01:38:52;99366.78;;;15.87;100.00
61742;BME280;47650;49.848;9.620;2022-10-16T01:41:31;99377.78;;;15.69;100.00
61742;BME280;47650;49.848;9.620;2022-10-16T01:44:15;99386.69;;;15.85;100.00
61742;BME280;47650;49.848;9.620;2022-10-16T01:46:43;99386.69;;;15.85;100.00
61742;BME280;47650;49.848;9.620;2022-10-16T01:49:11;99375.34;;;15.97;100.00
61742;BME280;47650;49.848;9.620;2022-10-16T01:51:37;99374.88;;;15.94;100.00
61742;BME280;47650;49.848;9.620;2022-10-16T01:54:08;99375.13;;;16.14;100.00
61742;BME280;47650;49.848;9.620;2022-10-16T01:56:36;99367.97;;;16.00;100.00
61742;BME280;47650;49.848;9.620;2022-10-16T01:59:05;99379.41;;;16.30;99.66
61742;BME280;47650;49.848;9.620;2022-10-16T02:01:33;99380.31;;;16.01;98.64
61742;BME280;47650;49.848;9.620;2022-10-16T02:04:11;99339.00;;;15.88;98.92
61742;BME280;47650;49.848;9.620;2022-10-16T02:06:38;99368.97;;;15.98;99.76
61742;BME280;47650;49.848;9.620;2022-10-16T02:09:03;99385.56;;;16.09;99.54
61742;BME280;47650;49.848;9.620;2022-10-16T02:11:29;99372.34;;;16.22;99.48
61742;BME280;47650;49.848;9.620;2022-10-16T02:14:06;99386.94;;;16.56;98.99
61742;BME280;47650;49.848;9.620;2022-10-16T02:16:37;99368.06;;;16.64;97.98
61742;BME280;47650;49.848;9.620;2022-10-16T02:19:04;99382.84;;;16.82;97.83
61742;BME280;47650;49.848;9.620;2022-10-16T02:21:36;99375.59;;;16.97;98.21
61742;BME280;47650;49.848;9.620;2022-10-16T02:26:41;99379.22;;;17.11;96.96
61742;BME280;47650;49.848;9.620;2022-10-16T02:29:14;99386.19;;;17.27;96.66
61742;BME280;47650;49.848;9.620;2022-10-16T02:31:46;99381.44;;;17.29;96.55
61742;BME280;47650;49.848;9.620;2022-10-16T02:34:14;99387.88;;;17.35;96.13
61742;BME280;47650;49.848;9.620;2022-10-16T02:36:41;99349.72;;;17.04;95.00
61742;BME280;47650;49.848;9.620;2022-10-16T02:39:09;99396.97;;;17.40;95.30
61742;BME280;47650;49.848;9.620;2022-10-16T02:41:35;99404.69;;;17.50;95.35
61742;BME280;47650;49.848;9.620;2022-10-16T02:44:01;99407.69;;;17.40;95.67
61742;BME280;47650;49.848;9.620;2022-10-16T02:46:26;99406.84;;;16.90;95.52
61742;BME280;47650;49.848;9.620;2022-10-16T02:48:52;99402.91;;;17.07;96.07
61742;BME280;47650;49.848;9.620;2022-10-16T02:51:18;99392.69;;;17.18;96.11
61742;BME280;47650;49.848;9.620;2022-10-16T02:53:43;99389.25;;;17.24;96.18
61742;BME280;47650;49.848;9.620;2022-10-16T02:56:10;99406.25;;;16.36;95.86
61742;BME280;47650;49.848;9.620;2022-10-16T02:58:38;99393.56;;;16.82;97.80
61742;BME280;47650;49.848;9.620;2022-10-16T03:01:05;99380.97;;;16.97;97.79
61742;BME280;47650;49.848;9.620;2022-10-16T03:03:30;99382.75;;;17.12;97.79
61742;BME280;47650;49.848;9.620;2022-10-16T03:05:56;99388.59;;;17.22;97.76
61742;BME280;47650;49.848;9.620;2022-10-16T03:08:21;99377.28;;;16.98;95.24
61742;BME280;47650;49.848;9.620;2022-10-16T03:10:49;99399.94;;;17.24;96.68
61742;BME280;47650;49.848;9.620;2022-10-16T03:13:14;99398.78;;;17.33;97.18
61742;BME280;47650;49.848;9.620;2022-10-16T03:15:40;99389.34;;;17.37;96.47
61742;BME280;47650;49.848;9.620;2022-10-16T03:18:05;99388.94;;;17.40;96.55
61742;BME280;47650;49.848;9.620;2022-10-16T03:20:34;99389.59;;;17.42;96.64
61742;BME280;47650;49.848;9.620;2022-10-16T03:23:00;99401.94;;;17.43;96.50
61742;BME280;47650;49.848;9.620;2022-10-16T03:25:25;99401.94;;;17.43;96.70
61742;BME280;47650;49.848;9.620;2022-10-16T03:27:52;99401.94;;;17.43;96.12
61742;BME280;47650;49.848;9.620;2022-10-16T03:30:18;99397.34;;;17.09;93.96
61742;BME280;47650;49.848;9.620;2022-10-16T03:32:44;99399.31;;;17.22;94.37
61742;BME280;47650;49.848;9.620;2022-10-16T03:35:10;99404.69;;;17.22;95.06
61742;BME280;47650;49.848;9.620;2022-10-16T03:37:35;99382.56;;;17.13;95.29
61742;BME280;47650;49.848;9.620;2022-10-16T03:42:28;99402.44;;;17.25;96.11
61742;BME280;47650;49.848;9.620;2022-10-16T03:44:55;99403.00;;;17.21;95.34
61742;BME280;47650;49.848;9.620;2022-10-16T03:47:21;99420.75;;;17.22;95.48
61742;BME280;47650;49.848;9.620;2022-10-16T03:49:49;99406.31;;;17.23;95.47
61742;BME280;47650;49.848;9.620;2022-10-16T03:52:14;99396.41;;;17.17;95.61
61742;BME280;47650;49.848;9.620;2022-10-16T03:54:39;99399.06;;;17.17;95.47
61742;BME280;47650;49.848;9.620;2022-10-16T03:57:05;99415.91;;;17.32;95.94
61742;BME280;47650;49.848;9.620;2022-10-16T03:59:31;99405.56;;;17.29;95.72
61742;BME280;47650;49.848;9.620;2022-10-16T04:01:57;99392.03;;;17.16;95.44
61742;BME280;47650;49.848;9.620;2022-10-16T04:04:23;99374.09;;;17.09;95.09
61742;BME280;47650;49.848;9.620;2022-10-16T04:06:52;99373.38;;;17.01;94.75
61742;BME280;47650;49.848;9.620;2022-10-16T04:09:17;99407.56;;;17.20;95.33
61742;BME280;47650;49.848;9.620;2022-10-16T04:11:42;99413.47;;;17.37;95.54
61742;BME280;47650;49.848;9.620;2022-10-16T04:14:08;99410.38;;;17.40;95.30
61742;BME280;47650;49.848;9.620;2022-10-16T04:16:34;99400.19;;;17.29;95.35
61742;BME280;47650;49.848;9.620;2022-10-16T04:19:03;99415.91;;;17.32;95.48
61742;BME280;47650;49.848;9.620;2022-10-16T04:21:30;99423.09;;;17.32;95.96
61742;BME280;47650;49.848;9.620;2022-10-16T04:23:56;99413.88;;;16.91;93.17
61742;BME280;47650;49.848;9.620;2022-10-16T04:26:21;99431.47;;;17.00;94.28
61742;BME280;47650;49.848;9.620;2022-10-16T04:28:46;99434.22;;;17.07;94.96
61742;BME280;47650;49.848;9.620;2022-10-16T04:31:11;99420.31;;;16.82;94.90
61742;BME280;47650;49.848;9.620;2022-10-16T04:33:37;99433.78;;;17.03;95.04
61742;BME280;47650;49.848;9.620;2022-10-16T04:36:03;99435.28;;;17.13;95.65
61742;BME280;47650;49.848;9.620;2022-10-16T04:38:28;99435.53;;;17.18;95.61
61742;BME280;47650;49.848;9.620;2022-10-16T04:40:54;99417.94;;;17.08;95.54
61742;BME280;47650;49.848;9.620;2022-10-16T04:43:20;99454.41;;;17.31;95.54
61742;BME280;47650;49.848;9.620;2022-10-16T04:45:45;99455.06;;;17.12;93.40
61742;BME280;47650;49.848;9.620;2022-10-16T04:48:13;99452.25;;;17.20;93.47
61742;BME280;47650;49.848;9.620;2022-10-16T04:50:38;99427.69;;;17.16;94.78
61742;BME280;47650;49.848;9.620;2022-10-16T04:53:03;99436.41;;;17.25;94.33
61742;BME280;47650;49.848;9.620;2022-10-16T04:55:29;99451.44;;;16.98;92.43
61742;BME280;47650;49.848;9.620;2022-10-16T04:58:03;99394.88;;;16.86;93.81
61742;BME280;47650;49.848;9.620;2022-10-16T05:00:31;99446.28;;;16.96;94.20
61742;BME280;47650;49.848;9.620;2022-10-16T05:02:57;99442.81;;;17.02;93.68
61742;BME280;47650;49.848;9.620;2022-10-16T05:05:25;99456.34;;;16.94;93.57
61742;BME280;47650;49.848;9.620;2022-10-16T05:07:51;99465.41;;;16.93;93.44
61742;BME280;47650;49.848;9.620;2022-10-16T05:10:18;99453.53;;;17.02;94.53
61742;BME280;47650;49.848;9.620;2022-10-16T05:12:44;99458.13;;;17.08;95.07
61742;BME280;47650;49.848;9.620;2022-10-16T05:15:09;99453.47;;;17.17;95.32
61742;BME280;47650;49.848;9.620;2022-10-16T05:17:35;99450.41;;;17.20;95.07
61742;BME280;47650;49.848;9.620;2022-10-16T05:20:04;99457.47;;;17.28;95.42
61742;BME280;47650;49.848;9.620;2022-10-16T05:22:29;99453.78;;;17.29;95.18
61742;BME280;47650;49.848;9.620;2022-10-16T05:24:55;99447.13;;;17.25;94.65
61742;BME280;47650;49.848;9.620;2022-10-16T05:27:20;99434.72;;;17.17;94.65
61742;BME280;47650;49.848;9.620;2022-10-16T05:29:46;99449.97;;;17.17;93.32
61742;BME280;47650;49.848;9.620;2022-10-16T05:32:13;99445.44;;;17.17;93.92
61742;BME280;47650;49.848;9.620;2022-10-16T05:34:39;99431.34;;;17.08;94.06
61742;BME280;47650;49.848;9.620;2022-10-16T05:37:06;99431.47;;;17.00;93.80
61742;BME280;47650;49.848;9.620;2022-10-16T05:39:32;99442.81;;;17.02;93.77
61742;BME280;47650;49.848;9.620;2022-10-16T05:41:58;99457.06;;;17.03;94.15
61742;BME280;47650;49.848;9.620;2022-10-16T05:44:23;99457.25;;;17.01;94.21
61742;BME280;47650;49.848;9.620;2022-10-16T05:46:51;99462.16;;;16.98;94.21
61742;BME280;47650;49.848;9.620;2022-10-16T05:49:16;99435.75;;;16.95;94.21
61742;BME280;47650;49.848;9.620;2022-10-16T05:51:43;99464.50;;;16.86;94.33
61742;BME280;47650;49.848;9.620;2022-10-16T05:54:10;99477.97;;;16.78;92.33
61742;BME280;47650;49.848;9.620;2022-10-16T05:56:35;99486.00;;;16.78;92.97
61742;BME280;47650;49.848;9.620;2022-10-16T05:59:00;99478.88;;;16.85;93.70
61742;BME280;47650;49.848;9.620;2022-10-16T06:01:26;99476.03;;;16.86;93.84
61742;BME280;47650;49.848;9.620;2022-10-16T06:03:53;99471.13;;;16.90;93.97
61742;BME280;47650;49.848;9.620;2022-10-16T06:06:23;99480.47;;;16.94;94.07
61742;BME280;47650;49.848;9.620;2022-10-16T06:08:49;99483.41;;;16.99;94.35
61742;BME280;47650;49.848;9.620;2022-10-16T06:11:18;99466.66;;;16.97;93.92
61742;BME280;47650;49.848;9.620;2022-10-16T06:13:43;99486.59;;;17.09;94.49
61742;BME280;47650;49.848;9.620;2022-10-16T06:16:11;99479.44;;;17.17;94.43
61742;BME280;47650;49.848;9.620;2022-10-16T06:18:38;99484.34;;;16.77;90.94
61742;BME280;47650;49.848;9.620;2022-10-16T06:21:11;99498.06;;;17.03;92.74
61742;BME280;47650;49.848;9.620;2022-10-16T06:23:38;99508.47;;;17.13;93.38
61742;BME280;47650;49.848;9.620;2022-10-16T06:26:15;99504.00;;;17.20;93.41
61742;BME280;47650;49.848;9.620;2022-10-16T06:28:41;99482.81;;;17.04;92.98
61742;BME280;47650;49.848;9.620;2022-10-16T06:31:10;99515.53;;;17.21;92.19
61742;BME280;47650;49.848;9.620;2022-10-16T06:33:36;99512.38;;;17.32;92.90
61742;BME280;47650;49.848;9.620;2022-10-16T06:36:12;99513.44;;;17.38;93.15
61742;BME280;47650;49.848;9.620;2022-10-16T06:38:38;99519.13;;;17.50;93.68
61742;BME280;47650;49.848;9.620;2022-10-16T06:41:04;99520.69;;;17.44;92.89
61742;BME280;47650;49.848;9.620;2022-10-16T06:43:36;99525.75;;;17.54;94.26
61742;BME280;47650;49.848;9.620;2022-10-16T06:46:04;99550.13;;;17.59;94.82
61742;BME280;47650;49.848;9.620;2022-10-16T06:48:32;99528.72;;;17.65;94.99
61742;BME280;47650;49.848;9.620;2022-10-16T06:51:11;99513.25;;;17.39;91.51
61742;BME280;47650;49.848;9.620;2022-10-16T06:53:42;99541.94;;;17.45;90.04
61742;BME280;47650;49.848;9.620;2022-10-16T06:56:21;99554.72;;;17.65;91.41
61742;BME280;47650;49.848;9.620;2022-10-16T06:58:47;99549.63;;;17.77;92.65
61742;BME280;47650;49.848;9.620;2022-10-16T07:01:15;99557.00;;;17.90;92.97
61742;BME280;47650;49.848;9.620;2022-10-16T07:03:43;99553.97;;;17.99;92.86
61742;BME280;47650;49.848;9.620;2022-10-16T07:06:11;99509.66;;;17.54;89.13
61742;BME280;47650;49.848;9.620;2022-10-16T07:08:38;99560.72;;;17.67;88.59
61742;BME280;47650;49.848;9.620;2022-10-16T07:11:06;99566.69;;;17.91;89.71
61742;BME280;47650;49.848;9.620;2022-10-16T07:13:41;99567.44;;;18.06;91.10
61742;BME280;47650;49.848;9.620;2022-10-16T07:16:08;99558.88;;;18.17;91.13
61742;BME280;47650;49.848;9.620;2022-10-16T07:18:35;99562.41;;;18.25;90.79
61742;BME280;47650;49.848;9.620;2022-10-16T07:21:20;99568.28;;;18.35;90.99
61742;BME280;47650;49.848;9.620;2022-10-16T07:23:57;99580.53;;;17.88;88.08
61742;BME280;47650;49.848;9.620;2022-10-16T07:26:24;99575.06;;;17.81;88.68
61742;BME280;47650;49.848;9.620;2022-10-16T07:28:50;99583.22;;;18.16;90.10
61742;BME280;47650;49.848;9.620;2022-10-16T07:31:19;99553.13;;;18.20;88.98
61742;BME280;47650;49.848;9.620;2022-10-16T07:33:45;99565.41;;;18.78;89.94
61742;BME280;47650;49.848;9.620;2022-10-16T07:36:13;99576.31;;;19.18;89.39
61742;BME280;47650;49.848;9.620;2022-10-16T07:38:41;99566.44;;;19.39;88.96
61742;BME280;47650;49.848;9.620;2022-10-16T07:41:10;99537.69;;;19.19;88.88
61742;BME280;47650;49.848;9.620;2022-10-16T07:43:37;99586.94;;;19.53;88.16
61742;BME280;47650;49.848;9.620;2022-10-16T07:46:03;99595.75;;;19.20;85.42
61742;BME280;47650;49.848;9.620;2022-10-16T07:48:31;99594.56;;;18.81;85.74
61742;BME280;47650;49.848;9.620;2022-10-16T07:51:03;99604.03;;;18.42;85.67
61742;BME280;47650;49.848;9.620;2022-10-16T07:53:29;99599.28;;;18.44;86.83
61742;BME280;47650;49.848;9.620;2022-10-16T07:56:04;99594.47;;;18.33;85.59
61742;BME280;47650;49.848;9.620;2022-10-16T07:58:30;99566.97;;;17.53;86.59
61742;BME280;47650;49.848;9.620;2022-10-16T08:00:56;99608.19;;;17.73;88.33
61742;BME280;47650;49.848;9.620;2022-10-16T08:03:24;99599.88;;;18.11;87.73
61742;BME280;47650;49.848;9.620;2022-10-16T08:05:51;99611.22;;;18.35;85.87
61742;BME280;47650;49.848;9.620;2022-10-16T08:08:18;99625.94;;;18.17;85.78
61742;BME280;47650;49.848;9.620;2022-10-16T08:10:44;99627.75;;;18.38;86.48
61742;BME280;47650;49.848;9.620;2022-10-16T08:13:11;99623.38;;;18.66;85.18
61742;BME280;47650;49.848;9.620;2022-10-16T08:15:47;99614.88;;;19.52;85.04
61742;BME280;47650;49.848;9.620;2022-10-16T08:18:14;99610.38;;;20.66;83.94
61742;BME280;47650;49.848;9.620;2022-10-16T08:20:40;99614.16;;;21.55;82.34
61742;BME280;47650;49.848;9.620;2022-10-16T08:23:06;99604.94;;;23.50;74.33
61742;BME280;47650;49.848;9.620;2022-10-16T08:25:34;99589.41;;;23.15;74.10
61742;BME280;47650;49.848;9.620;2022-10-16T08:28:00;99615.22;;;22.92;69.92
61742;BME280;47650;49.848;9.620;2022-10-16T08:30:26;99612.66;;;23.34;65.95
61742;BME280;47650;49.848;9.620;2022-10-16T08:32:53;99619.91;;;23.03;65.38
61742;BME280;47650;49.848;9.620;2022-10-16T08:35:18;99626.03;;;22.92;65.73
61742;BME280;47650;49.848;9.620;2022-10-16T08:37:45;99605.72;;;21.77;70.24
61742;BME280;47650;49.848;9.620;2022-10-16T08:40:23;99626.81;;;22.12;72.43
61742;BME280;47650;49.848;9.620;2022-10-16T08:48:57;99648.81;;;20.93;79.80
61742;BME280;47650;49.848;9.620;2022-10-16T08:51:25;99645.13;;;19.74;80.16
61742;BME280;47650;49.848;9.620;2022-10-16T08:54:23;99657.19;;;20.18;81.98
61742;BME280;47650;49.848;9.620;2022-10-16T08:57:20;99645.41;;;20.66;84.15
61742;BME280;47650;49.848;9.620;2022-10-16T08:59:46;99644.63;;;21.11;82.92
61742;BME280;47650;49.848;9.620;2022-10-16T09:05:00;99631.28;;;21.22;82.08
61742;BME280;47650;49.848;9.620;2022-10-16T09:10:38;99652.19;;;20.82;80.63
61742;BME280;47650;49.848;9.620;2022-10-16T09:16:12;99662.09;;;20.88;83.39
61742;BME280;47650;49.848;9.620;2022-10-16T09:18:48;99665.28;;;20.32;80.60
61742;BME280;47650;49.848;9.620;2022-10-16T09:21:25;99658.19;;;19.84;83.19
61742;BME280;47650;49.848;9.620;2022-10-16T09:23:57;99663.19;;;20.14;85.87
61742;BME280;47650;49.848;9.620;2022-10-16T09:26:24;99685.63;;;19.52;84.02
61742;BME280;47650;49.848;9.620;2022-10-16T09:28:52;99703.09;;;18.65;85.71
61742;BME280;47650;49.848;9.620;2022-10-16T09:31:21;99706.19;;;18.12;89.81
61742;BME280;47650;49.848;9.620;2022-10-16T09:34:13;99704.81;;;19.01;90.88
61742;BME280;47650;49.848;9.620;2022-10-16T09:36:46;99702.56;;;19.53;91.11
61742;BME280;47650;49.848;9.620;2022-10-16T09:39:14;99677.38;;;19.61;90.78
61742;BME280;47650;49.848;9.620;2022-10-16T09:41:42;99714.31;;;19.39;85.42
61742;BME280;47650;49.848;9.620;2022-10-16T09:44:47;99716.63;;;19.48;86.90
61742;BME280;47650;49.848;9.620;2022-10-16T09:47:20;99727.09;;;19.30;87.77
61742;BME280;47650;49.848;9.620;2022-10-16T09:50:04;99740.50;;;19.23;88.37
61742;BME280;47650;49.848;9.620;2022-10-16T09:52:33;99741.69;;;19.14;88.41
61742;BME280;47650;49.848;9.620;2022-10-16T09:55:12;99742.63;;;19.34;91.10
61742;BME280;47650;49.848;9.620;2022-10-16T09:57:51;99748.25;;;19.05;90.17
61742;BME280;47650;49.848;9.620;2022-10-16T10:00:18;99751.50;;;18.72;90.22
61742;BME280;47650;49.848;9.620;2022-10-16T10:02:45;99745.88;;;18.88;92.36
61742;BME280;47650;49.848;9.620;2022-10-16T10:05:19;99754.03;;;19.02;93.70
61742;BME280;47650;49.848;9.620;2022-10-16T10:07:57;99752.78;;;19.04;94.21
61742;BME280;47650;49.848;9.620;2022-10-16T10:10:26;99751.59;;;19.13;94.42
61742;BME280;47650;49.848;9.620;2022-10-16T10:12:53;99733.31;;;18.46;92.39
61742;BME280;47650;49.848;9.620;2022-10-16T10:15:19;99746.72;;;18.67;94.85
61742;BME280;47650;49.848;9.620;2022-10-16T10:17:56;99750.19;;;18.61;95.70
61742;BME280;47650;49.848;9.620;2022-10-16T10:20:33;99741.50;;;18.59;93.95
61742;BME280;47650;49.848;9.620;2022-10-16T10:23:00;99755.41;;;18.69;93.36
61742;BME280;47650;49.848;9.620;2022-10-16T10:26:04;99761.91;;;19.10;90.57
61742;BME280;47650;49.848;9.620;2022-10-16T10:31:27;99745.50;;;19.26;87.18
61742;BME280;47650;49.848;9.620;2022-10-16T10:34:21;99735.16;;;19.30;88.10
61742;BME280;47650;49.848;9.620;2022-10-16T10:36:59;99743.69;;;19.82;88.10
61742;BME280;47650;49.848;9.620;2022-10-16T10:39:43;99709.44;;;19.69;86.10
61742;BME280;47650;49.848;9.620;2022-10-16T10:42:34;99729.28;;;20.83;83.39
61742;BME280;47650;49.848;9.620;2022-10-16T10:45:16;99726.31;;;23.83;69.06
61742;BME280;47650;49.848;9.620;2022-10-16T10:47:52;99717.38;;;24.48;66.57
61742;BME280;47650;49.848;9.620;2022-10-16T10:50:37;99719.34;;;24.83;68.33
61742;BME280;47650;49.848;9.620;2022-10-16T11:01:50;99706.53;;;29.61;52.94
61742;BME280;47650;49.848;9.620;2022-10-16T11:07:27;99714.28;;;26.93;55.65
61742;BME280;47650;49.848;9.620;2022-10-16T11:09:58;99720.03;;;24.90;62.40
61742;BME280;47650;49.848;9.620;2022-10-16T11:12:31;99711.25;;;26.90;55.70
61742;BME280;47650;49.848;9.620;2022-10-16T11:15:16;99703.41;;;28.09;57.66
61742;BME280;47650;49.848;9.620;2022-10-16T11:18:13;99700.09;;;30.29;54.33
61742;BME280;47650;49.848;9.620;2022-10-16T11:20:51;99695.59;;;29.51;47.78
61742;BME280;47650;49.848;9.620;2022-10-16T11:23:26;99693.41;;;32.17;49.40
61742;BME280;47650;49.848;9.620;2022-10-16T11:25:59;99690.25;;;32.63;47.14
61742;BME280;47650;49.848;9.620;2022-10-16T11:28:38;99695.63;;;32.97;44.97
61742;BME280;47650;49.848;9.620;2022-10-16T11:31:37;99694.63;;;30.60;42.88
61742;BME280;47650;49.848;9.620;2022-10-16T11:36:57;99691.66;;;31.37;46.00
61742;BME280;47650;49.848;9.620;2022-10-16T11:39:30;99696.19;;;32.12;44.12
61742;BME280;47650;49.848;9.620;2022-10-16T11:42:13;99672.53;;;31.21;42.27
61742;BME280;47650;49.848;9.620;2022-10-16T11:44:57;99699.44;;;29.65;44.97
61742;BME280;47650;49.848;9.620;2022-10-16T11:47:41;99696.81;;;30.06;45.18
61742;BME280;47650;49.848;9.620;2022-10-16T11:52:57;99692.44;;;31.92;38.13
61742;BME280;47650;49.848;9.620;2022-10-16T11:55:45;99678.41;;;35.32;34.55
61742;BME280;47650;49.848;9.620;2022-10-16T11:58:27;99635.25;;;35.28;30.47
61742;BME280;47650;49.848;9.620;2022-10-16T12:01:06;99664.97;;;36.12;29.68
61742;BME280;47650;49.848;9.620;2022-10-16T12:03:46;99659.22;;;35.13;30.23
61742;BME280;47650;49.848;9.620;2022-10-16T12:08:53;99653.16;;;32.36;33.97
61742;BME280;47650;49.848;9.620;2022-10-16T12:13:49;99681.47;;;33.14;33.78
61742;BME280;47650;49.848;9.620;2022-10-16T12:18:44;99685.56;;;29.14;40.72
61742;BME280;47650;49.848;9.620;2022-10-16T12:21:12;99682.91;;;29.24;40.49
61742;BME280;47650;49.848;9.620;2022-10-16T12:23:51;99678.94;;;28.14;42.27
61742;BME280;47650;49.848;9.620;2022-10-16T12:26:44;99687.78;;;27.99;43.54
61742;BME280;47650;49.848;9.620;2022-10-16T12:29:14;99689.00;;;27.86;43.78
61742;BME280;47650;49.848;9.620;2022-10-16T12:31:45;99672.00;;;27.74;44.21
61742;BME280;47650;49.848;9.620;2022-10-16T12:34:31;99705.91;;;25.52;48.73
61742;BME280;47650;49.848;9.620;2022-10-16T12:37:32;99694.88;;;26.17;47.90
61742;BME280;47650;49.848;9.620;2022-10-16T12:39:59;99682.19;;;28.91;44.28
61742;BME280;47650;49.848;9.620;2022-10-16T12:44:54;99685.88;;;30.11;40.07
61742;BME280;47650;49.848;9.620;2022-10-16T12:49:54;99670.56;;;33.04;33.61
61742;BME280;47650;49.848;9.620;2022-10-16T12:52:37;99655.66;;;35.77;30.99
61742;BME280;47650;49.848;9.620;2022-10-16T12:55:05;99669.59;;;35.58;28.46
61742;BME280;47650;49.848;9.620;2022-10-16T13:01:04;99642.66;;;38.43;26.46
61742;BME280;47650;49.848;9.620;2022-10-16T13:06:17;99655.28;;;40.96;23.55
61742;BME280;47650;49.848;9.620;2022-10-16T13:11:52;99649.22;;;40.45;22.97
61742;BME280;47650;49.848;9.620;2022-10-16T13:22:49;99674.66;;;35.79;27.55
61742;BME280;47650;49.848;9.620;2022-10-16T13:25:48;99680.41;;;35.54;29.79
61742;BME280;47650;49.848;9.620;2022-10-16T13:28:21;99684.72;;;35.19;28.33
61742;BME280;47650;49.848;9.620;2022-10-16T13:30:53;99695.84;;;32.18;33.26
61742;BME280;47650;49.848;9.620;2022-10-16T13:33:32;99697.84;;;32.71;32.88
61742;BME280;47650;49.848;9.620;2022-10-16T13:35:58;99698.91;;;32.75;33.68
61742;BME280;47650;49.848;9.620;2022-10-16T13:38:26;99689.94;;;33.18;33.17
61742;BME280;47650;49.848;9.620;2022-10-16T13:41:12;99710.16;;;32.45;35.22
61742;BME280;47650;49.848;9.620;2022-10-16T13:43:49;99688.63;;;32.28;33.52
61742;BME280;47650;49.848;9.620;2022-10-16T13:46:21;99709.56;;;31.79;34.73
61742;BME280;47650;49.848;9.620;2022-10-16T13:49:12;99714.25;;;32.13;33.01
61742;BME280;47650;49.848;9.620;2022-10-16T13:51:38;99706.00;;;31.73;35.11
61742;BME280;47650;49.848;9.620;2022-10-16T13:54:05;99710.38;;;31.14;36.46
61742;BME280;47650;49.848;9.620;2022-10-16T13:56:32;99713.75;;;30.80;37.28
61742;BME280;47650;49.848;9.620;2022-10-16T13:59:05;99705.84;;;30.48;37.83
61742;BME280;47650;49.848;9.620;2022-10-16T14:01:35;99708.00;;;30.05;39.28
61742;BME280;47650;49.848;9.620;2022-10-16T14:04:08;99693.97;;;29.65;40.34
61742;BME280;47650;49.848;9.620;2022-10-16T14:06:34;99706.91;;;29.17;40.88
61742;BME280;47650;49.848;9.620;2022-10-16T14:09:30;99695.25;;;28.84;42.70
61742;BME280;47650;49.848;9.620;2022-10-16T14:12:07;99714.28;;;28.36;43.96
61742;BME280;47650;49.848;9.620;2022-10-16T14:14:40;99718.69;;;27.61;44.85
61742;BME280;47650;49.848;9.620;2022-10-16T14:17:13;99729.69;;;27.71;46.59
61742;BME280;47650;49.848;9.620;2022-10-16T14:19:39;99728.72;;;27.33;45.19
61742;BME280;47650;49.848;9.620;2022-10-16T14:22:22;99728.34;;;27.46;47.96
61742;BME280;47650;49.848;9.620;2022-10-16T14:24:49;99734.50;;;27.19;46.02
61742;BME280;47650;49.848;9.620;2022-10-16T14:27:35;99727.59;;;27.12;47.90
61742;BME280;47650;49.848;9.620;2022-10-16T14:32:34;99730.38;;;26.27;49.53
61742;BME280;47650;49.848;9.620;2022-10-16T14:34:59;99732.16;;;26.21;49.99
61742;BME280;47650;49.848;9.620;2022-10-16T14:37:27;99735.38;;;25.89;50.43